x

Gooses Reef, Md (44062) Wave Buoy

4:50am - Thu 17th Aug 2017 All times are EDT. -4 hours from GMT.

  • Sig Wave height 0.3ft
  • Wind
    9mph, 11mph gusts
  • Air Temp 79°f
  • Sea Pressure 1016.4mb
  • Gooses Reef, Md
  • Gooses Reef, Md

More Historic Weather Station data

Upgrade to MSW Pro to gain access to the past 30 days of data for over 8000 Wavebouys and Weather Stations around the globe.

Join

Comparision Forecast

View Surf forecast
   
Thu 08/17 4:50am 0.3ft  -  9 11 mph 1016.4mb - 79f
4:40am  -   -  9 11 mph 1016.4mb - 79f
4:30am  -   -  9 11 mph 1016.3mb - 79f
4:20am  -   -  9 9 mph 1016.4mb - 79f
4:10am 0.3ft  -  9 9 mph 1016.6mb - 80f
4:00am 0.7ft  -  9 11 mph 1016.6mb 80f 80f
3:50am 0.3ft  -  9 11 mph 1016.6mb - 80f
3:40am  -   -  9 11 mph 1016.6mb - 80f
3:30am  -   -  9 11 mph 1016.7mb - 80f
3:20am  -   -  9 11 mph 1016.7mb - 80f
3:10am 0.7ft  -  9 11 mph 1016.7mb - 80f
3:00am 0.7ft  -  9 9 mph 1016.8mb 80f 80f
2:50am 0.7ft  -  9 9 mph 1016.9mb - 80f
2:40am  -   -  7 9 mph 1017mb - 79f
2:30am  -   -  7 9 mph 1017mb - 79f
2:20am  -   -  7 9 mph 1017mb - 79f
2:10am 0.7ft  -  7 9 mph 1017.1mb - 79f
2:00am 0.7ft  -  9 9 mph 1017mb 80f 79f
1:50am 0.7ft  -  9 9 mph 1017mb - 80f
1:40am  -   -  9 11 mph 1017mb - 80f
1:30am  -   -  9 11 mph 1017.1mb - 80f
1:20am  -   -  9 11 mph 1017.2mb - 80f
1:10am 0.7ft  -  9 11 mph 1017.2mb - 80f
1:00am 0.7ft  -  9 11 mph 1017.2mb 80f 80f
12:50am 0.7ft  -  9 9 mph 1017.2mb - 80f
12:40am  -   -  9 9 mph 1017.2mb - 80f
12:30am  -   -  9 11 mph 1017.3mb - 80f
12:20am  -   -  9 11 mph 1017.4mb - 80f
12:10am  -   -  9 11 mph 1017.5mb - 80f
12:00am  -   -  11 13 mph 1017.5mb 80f 80f
Wed 08/16 11:50pm  -   -  11 11 mph 1017.5mb - 80f
11:40pm  -   -  9 13 mph 1017.6mb - 80f
11:30pm  -   -  9 9 mph 1017.6mb - 80f
11:20pm  -   -  9 11 mph 1017.6mb - 80f
11:10pm  -   -  11 13 mph 1017.5mb - 80f
11:00pm  -   -  9 13 mph 1017.5mb 80f 81f
10:50pm  -   -  9 11 mph 1017.5mb - 81f
10:40pm  -   -  9 11 mph 1017.4mb - 81f
10:30pm  -   -  9 11 mph 1017.3mb - 82f
10:20pm  -   -  7 11 mph 1017.2mb - 82f
10:10pm  -   -  7 9 mph 1017.2mb - 82f
10:00pm  -   -  4 7 mph 1017.2mb 80f 81f
9:50pm  -   -  2 4 mph 1016.9mb - 82f
9:40pm  -   -  7 11 mph 1016.8mb - 82f
9:30pm  -   -  7 9 mph 1016.7mb - 82f
9:20pm  -   -  7 9 mph 1016.5mb - 82f
9:10pm 0.7ft  -  7 9 mph 1016.4mb - 82f
9:00pm 0.7ft  -  9 11 mph 1016.3mb 81f 82f
8:50pm 0.7ft  -  9 9 mph 1016.3mb - 82f
8:40pm  -   -  7 9 mph 1016.1mb - 82f
8:30pm  -   -  9 9 mph 1016mb - 83f
8:20pm  -   -  9 9 mph 1016mb - 83f
8:10pm  -   -  9 9 mph 1015.9mb - 83f
8:00pm  -   -  9 11 mph 1015.9mb 82f 83f
7:50pm  -   -  9 11 mph 1015.9mb - 83f
7:40pm  -   -  9 11 mph 1015.9mb - 83f
7:30pm  -   -  7 9 mph 1015.8mb - 83f
7:20pm  -   -  7 9 mph 1015.7mb - 83f
7:10pm  -   -  7 9 mph 1015.7mb - 83f
6:50pm  -   -  7 7 mph 1015.7mb - 84f
6:40pm  -   -  7 9 mph 1015.6mb - 84f
6:30pm  -   -  7 9 mph 1015.6mb - 84f
6:20pm  -   -  7 9 mph 1015.6mb - 84f
6:10pm 0.3ft  -  9 9 mph 1015.7mb - 84f
6:00pm 0.3ft  -  7 9 mph 1015.8mb 83f 85f
5:50pm 0.3ft  -  4 4 mph 1015.7mb - 85f
5:40pm  -   -  2 2 mph 1015.7mb - 84f
5:30pm  -   -  2 4 mph 1015.7mb - 84f
5:20pm  -   -  4 4 mph 1015.6mb - 84f
5:10pm 0.3ft  -  4 4 mph 1015.7mb - 85f
5:00pm 0.3ft  -  4 4 mph 1015.7mb 82f 85f
4:50pm 0.3ft  -  4 4 mph 1015.8mb - 84f
4:40pm  -   -  4 4 mph 1015.9mb - 84f
4:30pm  -   -  4 7 mph 1015.8mb - 83f
4:20pm  -   -  7 7 mph 1015.8mb - 84f
4:10pm 0.3ft  -  4 4 mph 1015.8mb - 83f
4:00pm 0.3ft  -  4 4 mph 1015.9mb 83f 83f
3:50pm 0.3ft  -  4 4 mph 1016mb - 83f
3:40pm  -   -  4 7 mph 1016mb - 83f
3:30pm  -   -  4 7 mph 1016.1mb - 83f
3:20pm  -   -  4 4 mph 1016.2mb - 83f
3:10pm 0.3ft  -  4 7 mph 1016.2mb - 83f
3:00pm 0.3ft  -  4 7 mph 1016.2mb 83f 83f
2:50pm 0.3ft  -  4 4 mph 1016.2mb - 82f
2:40pm  -   -  4 7 mph 1016.3mb - 82f
2:30pm  -   -  4 7 mph 1016.4mb - 81f
2:20pm  -   -  4 7 mph 1016.5mb - 81f
2:10pm 0.3ft  -  4 7 mph 1016.6mb - 81f
2:00pm 0.3ft  -  4 4 mph 1016.6mb 82f 81f
1:50pm 0.3ft  -  4 4 mph 1016.6mb - 80f
1:40pm  -   -  4 4 mph 1016.5mb - 80f
1:30pm  -   -  2 4 mph 1016.5mb - 80f
1:20pm  -   -  2 4 mph 1016.6mb - 79f
1:10pm 0.3ft  -  2 4 mph 1016.6mb - 79f
1:00pm 0.3ft  -  2 4 mph 1016.7mb 81f 79f
12:50pm 0.3ft  -  2 4 mph 1016.7mb - 79f
12:40pm  -   -  2 4 mph 1016.7mb - 79f
12:30pm  -   -  4 4 mph 1016.7mb - 79f
12:20pm  -   -  4 4 mph 1016.6mb - 79f
12:10pm 0.7ft  -  4 4 mph 1016.7mb - 79f
12:00pm 0.7ft  -  2 4 mph 1016.8mb 80f 79f
11:50am 0.7ft  -  2 2 mph 1017mb - 79f
11:40am  -   -  2 2 mph 1017mb - 79f
11:30am  -   -  2 4 mph 1017.1mb - 79f
11:20am  -   -   -  2 mph 1017.2mb - 80f
11:10am 0.3ft  -   -  0 mph 1017.1mb - 79f
11:00am 0.3ft  -   -  0 mph 1017.1mb 79f 78f
10:50am 0.3ft  -   -  2 mph 1017mb - 77f
10:40am  -   -  2 4 mph 1016.9mb - 77f
10:30am  -   -  4 7 mph 1016.8mb - 77f
10:20am  -   -  4 7 mph 1016.8mb - 77f
10:10am 0.3ft  -  4 7 mph 1016.8mb - 77f
10:00am 0.3ft  -  4 7 mph 1016.7mb 78f 77f
9:50am 0.3ft  -  4 4 mph 1016.7mb - 77f
9:40am  -   -  4 7 mph 1016.6mb - 77f
9:30am  -   -  2 4 mph 1016.5mb - 77f
9:20am  -   -  2 4 mph 1016.5mb - 77f
9:10am 0.3ft  -  4 7 mph 1016.4mb - 77f
9:00am 0.3ft  -  4 7 mph 1016.4mb 78f 77f
8:50am 0.3ft  -  4 7 mph 1016.4mb - 77f
8:40am  -   -  4 7 mph 1016.3mb - 77f
8:30am  -   -  4 7 mph 1016.2mb - 77f
8:20am  -   -  4 7 mph 1016.2mb - 77f
8:10am 0.3ft  -  4 7 mph 1016.1mb - 77f
8:00am 0.3ft  -  7 7 mph 1016mb 78f 77f
7:50am 0.3ft  -  7 7 mph 1016mb - 77f
7:40am  -   -  7 7 mph 1016mb - 77f
7:30am  -   -  7 9 mph 1016mb - 76f
7:20am  -   -  7 9 mph 1015.9mb - 76f
7:10am 0.7ft  -  7 9 mph 1015.8mb - 76f
7:00am 0.7ft  -  7 9 mph 1015.7mb 78f 76f
6:50am 0.7ft  -  7 9 mph 1015.7mb - 76f
6:40am  -   -  7 9 mph 1015.7mb - 76f
6:30am  -   -  7 9 mph 1015.8mb - 76f
6:20am  -   -  7 9 mph 1015.7mb - 76f
6:10am 0.7ft  -  7 9 mph 1015.6mb - 76f
6:00am 1ft 2s 9 9 mph 1015.4mb 78f 76f
5:50am 0.7ft  -  9 11 mph 1015.2mb - 76f
5:40am  -   -  9 11 mph 1015.1mb - 76f
5:30am  -   -  9 11 mph 1015.1mb - 77f
5:20am  -   -  9 11 mph 1015mb - 77f
5:10am 0.7ft  -  9 11 mph 1014.8mb - 77f
5:00am 1ft 2s 11 13 mph 1014.7mb 78f 76f
4:50am 0.7ft  -  11 13 mph 1014.5mb - 76f
4:40am  -   -  11 13 mph 1014.5mb - 77f
4:30am  -   -  9 11 mph 1014.4mb - 77f
4:20am  -   -  9 11 mph 1014.4mb - 77f
4:10am  -   -  9 11 mph 1014.3mb - 77f
4:00am  -   -  11 13 mph 1014.2mb 78f 76f
3:50am  -   -  11 11 mph 1014.1mb - 76f
3:40am  -   -  11 11 mph 1014.2mb - 77f
3:30am  -   -  9 11 mph 1014mb - 77f
3:20am  -   -  11 13 mph 1013.9mb - 77f
3:10am 0.7ft  -  11 13 mph 1014mb - 77f
3:00am 0.7ft  -  9 11 mph 1013.9mb 78f 77f
2:50am 0.7ft  -  9 11 mph 1013.9mb - 77f
2:40am  -   -  9 11 mph 1013.9mb - 77f
2:30am  -   -  9 11 mph 1013.9mb - 77f
2:20am  -   -  9 11 mph 1013.8mb - 77f
2:10am  -   -  9 11 mph 1013.9mb - 77f
2:00am  -   -  9 11 mph 1013.9mb 78f 77f
1:50am  -   -  11 11 mph 1013.8mb - 77f
1:40am  -   -  9 11 mph 1013.8mb - 77f
1:30am  -   -  9 11 mph 1013.8mb - 77f
1:20am  -   -  11 11 mph 1013.8mb - 77f
1:10am  -   -  9 11 mph 1013.7mb - 77f
1:00am  -   -  9 11 mph 1013.7mb 78f 78f
12:50am  -   -  9 9 mph 1013.6mb - 78f
12:40am  -   -  7 11 mph 1013.6mb - 78f
12:30am  -   -  7 7 mph 1013.6mb - 78f
12:20am  -   -  7 7 mph 1013.6mb - 78f
12:10am 0.3ft  -  4 7 mph 1013.5mb - 78f
12:00am 0.3ft  -  4 7 mph 1013.5mb 78f 78f
Tue 08/15 11:50pm 0.3ft  -  4 4 mph 1013.6mb - 78f
11:40pm  -   -  7 7 mph 1013.7mb - 78f
11:30pm  -   -  7 9 mph 1013.7mb - 78f
11:20pm  -   -  7 9 mph 1013.7mb - 78f
11:10pm 0.3ft  -  7 9 mph 1013.6mb - 79f
11:00pm 0.3ft  -  7 9 mph 1013.4mb 78f 79f
10:50pm 0.3ft  -  7 9 mph 1013.3mb - 79f
10:40pm  -   -  7 9 mph 1013.4mb - 79f
10:30pm  -   -  7 7 mph 1013.4mb - 79f
10:20pm  -   -  7 9 mph 1013.3mb - 79f
10:10pm 0.3ft  -  9 9 mph 1013.4mb - 79f
10:00pm 0.3ft  -  9 9 mph 1013.3mb 78f 79f
9:50pm 0.3ft  -  9 11 mph 1013.3mb - 79f
9:40pm  -   -  9 11 mph 1013.3mb - 79f
9:30pm  -   -  7 9 mph 1013.3mb - 79f
9:20pm  -   -  7 9 mph 1013.3mb - 79f
9:10pm 1ft  -  7 9 mph 1013.4mb - 79f
9:00pm 1ft 3s 7 9 mph 1013.2mb 79f 79f
8:50pm  -   -  7 9 mph 1012.9mb - 79f
8:40pm  -   -  7 9 mph 1012.8mb - 79f
8:30pm  -   -  7 7 mph 1012.8mb - 79f
8:20pm  -   -  4 7 mph 1012.6mb - 79f
8:10pm 0.7ft  -  4 7 mph 1012.5mb - 79f
8:00pm 0.7ft  -  4 4 mph 1012.5mb 79f 79f
7:50pm 0.7ft  -  4 4 mph 1012.4mb - 78f
7:40pm  -   -  4 4 mph 1012.4mb - 78f
7:30pm  -   -  7 9 mph 1012.5mb - 78f
7:20pm  -   -  7 7 mph 1012.4mb - 78f
7:10pm 0.3ft  -  7 9 mph 1012.4mb - 77f
7:00pm 0.3ft  -  9 11 mph 1012.4mb 79f 77f
6:50pm 0.3ft  -  11 16 mph 1012.3mb - 77f
6:40pm  -   -  13 20 mph 1012.3mb - 78f
6:30pm  -   -  9 13 mph 1012.4mb - 79f
6:20pm  -   -  4 7 mph 1012.3mb - 80f
6:10pm 0.3ft  -  4 4 mph 1012.3mb - 80f
6:00pm 0.3ft  -  4 7 mph 1012.2mb 80f 80f
5:50pm 0.3ft  -  4 7 mph 1012.3mb - 80f
5:40pm  -   -  4 7 mph 1012.5mb - 80f
5:30pm  -   -  4 4 mph 1012.6mb - 80f
5:20pm  -   -  2 2 mph 1012.6mb - 80f
5:10pm 0.3ft  -   -  2 mph 1012.5mb - 80f
5:00pm 0.3ft  -   -  2 mph 1012.4mb 79f 80f
4:50pm 0.3ft  -   -  2 mph 1012.3mb - 80f
4:40pm  -   -   -  2 mph 1012.3mb - 80f
4:30pm  -   -  2 4 mph 1012.3mb - 80f
4:20pm  -   -  4 4 mph 1012.1mb - 80f
4:10pm 0.3ft  -  4 7 mph 1012mb - 80f
4:00pm 0.3ft  -  4 4 mph 1011.9mb 79f 80f
3:50pm 0.3ft  -  4 4 mph 1011.8mb - 80f
3:40pm  -   -  2 4 mph 1011.9mb - 80f
3:30pm  -   -   -  2 mph 1012mb - 79f
3:20pm  -   -  2 2 mph 1012.1mb - 79f
3:10pm 0.3ft  -  2 4 mph 1012.3mb - 78f
3:00pm 0.3ft  -  4 4 mph 1012.5mb 78f 78f
2:50pm 0.3ft  -  4 4 mph 1012.7mb - 78f
2:40pm  -   -  4 7 mph 1012.9mb - 78f
2:30pm  -   -  4 7 mph 1012.8mb - 78f
2:20pm  -   -  2 2 mph 1012.8mb - 78f
2:10pm 0.3ft  -  2 2 mph 1012.7mb - 78f
2:00pm 0.3ft  -  2 7 mph 1012.8mb 78f 78f
1:50pm 0.3ft  -  4 9 mph 1012.8mb - 78f
1:40pm  -   -  7 9 mph 1012.5mb - 78f
1:30pm  -   -  7 16 mph 1012.5mb - 78f
1:20pm  -   -  4 4 mph 1012.7mb - 78f
1:10pm 0.3ft  -  2 4 mph 1012.9mb - 78f
1:00pm 0.3ft  -  2 2 mph 1013mb 78f 78f
12:50pm 0.3ft  -  2 2 mph 1013mb - 78f
12:40pm  -   -  2 2 mph 1013.2mb - 78f
12:30pm  -   -   -  2 mph 1013.3mb - 78f
12:20pm  -   -  2 2 mph 1013.3mb - 78f
12:10pm 0.3ft  -  2 2 mph 1013.2mb - 78f
12:00pm 0.3ft  -  2 4 mph 1013.2mb 78f 78f
11:50am 0.3ft  -  2 4 mph 1013.2mb - 78f
11:40am  -   -  4 4 mph 1013.2mb - 78f
11:30am  -   -  4 4 mph 1013mb - 78f
11:20am  -   -  4 7 mph 1013mb - 78f
11:10am 0.7ft  -  7 7 mph 1013.1mb - 77f
11:00am 0.7ft  -  7 7 mph 1013.1mb 78f 77f
10:50am 0.7ft  -  7 9 mph 1013.1mb - 77f
10:40am  -   -  7 7 mph 1013.3mb - 77f
10:30am  -   -  7 7 mph 1013.3mb - 77f
10:20am  -   -  7 7 mph 1013.4mb - 77f
10:10am 0.3ft  -  7 7 mph 1013.4mb - 77f
10:00am 0.7ft  -  7 7 mph 1013.4mb 78f 77f
9:50am 0.3ft  -  4 7 mph 1013.4mb - 77f
9:40am  -   -  4 7 mph 1013.5mb - 77f
9:30am  -   -  4 7 mph 1013.6mb - 77f
9:20am  -   -  4 4 mph 1013.7mb - 77f
9:10am 0.7ft  -  4 4 mph 1013.8mb - 77f
9:00am 0.7ft  -  4 7 mph 1013.8mb 78f 77f
8:50am 0.7ft  -  7 7 mph 1013.9mb - 77f
8:40am  -   -  7 7 mph 1013.9mb - 77f
8:30am  -   -  7 9 mph 1013.8mb - 77f
8:20am  -   -  7 7 mph 1013.7mb - 76f
8:10am 0.7ft  -  7 7 mph 1013.6mb - 77f
8:00am 0.7ft  -  7 9 mph 1013.5mb 78f 77f
7:50am 0.7ft  -  7 9 mph 1013.4mb - 77f
7:40am  -   -  9 9 mph 1013.2mb - 77f
7:30am  -   -  9 9 mph 1013.1mb - 77f
7:20am  -   -  9 11 mph 1013mb - 77f
7:10am 0.7ft  -  9 9 mph 1013mb - 77f
7:00am 0.7ft  -  7 11 mph 1013mb 78f 77f
6:50am 0.7ft  -  7 9 mph 1013.1mb - 77f
6:40am  -   -  4 4 mph 1013.2mb - 77f
6:30am  -   -  4 7 mph 1013.2mb - 77f
6:20am  -   -  4 7 mph 1013.2mb - 77f
6:10am 0.3ft  -  4 4 mph 1013.2mb - 76f
6:00am 0.3ft  -  4 7 mph 1013mb 78f 76f
5:50am 0.3ft  -  4 7 mph 1012.9mb - 76f
5:40am  -   -  7 7 mph 1012.9mb - 77f
5:30am  -   -  7 9 mph 1012.9mb - 77f
5:20am  -   -  7 7 mph 1013.1mb - 77f
5:10am 0.3ft  -  4 4 mph 1013.1mb - 78f
5:00am 0.7ft  -  4 4 mph 1013.1mb 78f 78f
4:50am 0.3ft  -  4 4 mph 1013.1mb - 78f
4:40am  -   -  4 7 mph 1013.1mb - 78f
4:30am  -   -  4 7 mph 1013.1mb - 78f
4:20am  -   -  4 4 mph 1013mb - 78f
4:10am 0.7ft  -  4 7 mph 1013.1mb - 78f
4:00am 0.7ft  -  4 4 mph 1013.2mb 78f 78f
3:50am 0.7ft  -  4 4 mph 1013.3mb - 78f
3:40am  -   -  4 7 mph 1013.3mb - 78f
3:30am  -   -  4 7 mph 1013.2mb - 78f
3:20am  -   -  7 7 mph 1013.1mb - 78f
3:10am 0.7ft  -  7 9 mph 1013.1mb - 78f
3:00am 0.7ft  -  7 9 mph 1013.4mb 78f 78f
2:50am 0.7ft  -  4 7 mph 1013.4mb - 78f
2:40am  -   -  7 7 mph 1013.4mb - 78f
2:30am  -   -  4 7 mph 1013.6mb - 78f
2:20am  -   -  4 7 mph 1013.6mb - 78f
2:10am 1ft  -  4 7 mph 1013.7mb - 78f
2:00am 1ft 3s 4 7 mph 1013.7mb 78f 78f
1:50am 1ft  -  4 7 mph 1013.8mb - 77f
1:40am  -   -  4 7 mph 1014mb - 77f
1:30am  -   -  4 7 mph 1014.3mb - 77f
1:20am  -   -  7 9 mph 1014.3mb - 77f
1:10am 1ft  -  7 9 mph 1014.4mb - 77f
1:00am 1ft 2s 7 9 mph 1014.5mb 78f 77f
12:50am 1ft  -  7 9 mph 1014.6mb - 77f
12:40am  -   -  9 9 mph 1014.6mb - 77f
12:30am  -   -  9 11 mph 1014.6mb - 77f
12:20am  -   -  9 11 mph 1014.6mb - 77f
12:10am 1ft  -  9 11 mph 1014.7mb - 77f
12:00am 1ft 2s 9 11 mph 1014.8mb 78f 77f
Mon 08/14 11:50pm 1ft  -  9 11 mph 1014.8mb - 77f
11:40pm  -   -  9 11 mph 1014.8mb - 77f
11:30pm  -   -  9 11 mph 1014.8mb - 77f
11:20pm  -   -  9 11 mph 1014.7mb - 77f
11:10pm 1ft  -  9 11 mph 1014.7mb - 78f
11:00pm 1ft 2s 9 13 mph 1014.7mb 78f 78f
10:50pm 1ft  -  11 16 mph 1014.5mb - 78f
10:40pm  -   -  11 13 mph 1014.5mb - 78f
10:30pm  -   -  11 13 mph 1014.5mb - 78f
10:20pm  -   -  13 13 mph 1014.6mb - 78f
10:10pm 1ft  -  11 13 mph 1014.6mb - 78f
10:00pm 1ft 2s 9 11 mph 1014.6mb 78f 78f
9:50pm 1ft  -  11 13 mph 1014.5mb - 78f
9:40pm  -   -  11 13 mph 1014.7mb - 78f
9:30pm  -   -  11 13 mph 1014.8mb - 78f
9:20pm  -   -  11 13 mph 1014.6mb - 78f
9:10pm  -   -  11 13 mph 1014.6mb - 78f
9:00pm  -   -  11 13 mph 1014.7mb 78f 79f
8:50pm  -   -  11 13 mph 1014.7mb - 79f
7:50pm  -   -  7 9 mph 1014.9mb - 79f
7:40pm  -   -  7 9 mph 1014.9mb - 79f
7:30pm  -   -  7 7 mph 1014.8mb - 79f
7:20pm  -   -  7 9 mph 1014.6mb - 79f
7:10pm  -   -  7 7 mph 1014.5mb - 79f
7:00pm  -   -  7 9 mph 1014.6mb 79f 79f
6:50pm  -   -  7 9 mph 1014.6mb - 79f
6:40pm  -   -  7 9 mph 1014.6mb - 79f
6:30pm  -   -  7 9 mph 1014.7mb - 79f
6:20pm  -   -  7 9 mph 1014.7mb - 79f
6:10pm 0.3ft  -  7 9 mph 1014.6mb - 79f
6:00pm 0.3ft  -  7 9 mph 1014.8mb 79f 79f
5:50pm 0.3ft  -  7 9 mph 1014.9mb - 79f
5:40pm  -   -  7 9 mph 1014.9mb - 79f
5:30pm  -   -  7 9 mph 1014.9mb - 79f
5:20pm  -   -  7 9 mph 1014.9mb - 79f
5:10pm 0.3ft  -  7 9 mph 1014.9mb - 79f
5:00pm 0.3ft  -  7 9 mph 1014.9mb 79f 79f
4:50pm 0.3ft  -  7 9 mph 1014.9mb - 79f
4:40pm  -   -  7 9 mph 1015.2mb - 78f
4:30pm  -   -  7 9 mph 1015.3mb - 78f
4:20pm  -   -  7 9 mph 1015.4mb - 78f
4:10pm 0.3ft  -  7 9 mph 1015.5mb - 79f
4:00pm 0.3ft  -  7 7 mph 1015.6mb 80f 79f
3:50pm 0.3ft  -  4 7 mph 1015.8mb - 79f
3:40pm  -   -  4 7 mph 1015.8mb - 79f
3:30pm  -   -  4 7 mph 1015.9mb - 79f
3:20pm  -   -  4 7 mph 1015.9mb - 78f
3:10pm 0.3ft  -  4 7 mph 1016mb - 78f
3:00pm 0.3ft  -  4 7 mph 1016.1mb 79f 79f
2:50pm 0.3ft  -  4 7 mph 1016.3mb - 79f
2:40pm  -   -  4 7 mph 1016.4mb - 78f
2:30pm  -   -  4 7 mph 1016.5mb - 78f
2:20pm  -   -  4 4 mph 1016.5mb - 78f
2:10pm 0.3ft  -  4 4 mph 1016.6mb - 79f
2:00pm 0.3ft  -  4 4 mph 1016.7mb 79f 79f
1:50pm 0.3ft  -  2 4 mph 1016.8mb - 79f
1:40pm  -   -  2 2 mph 1016.8mb - 79f
1:30pm  -   -  2 2 mph 1016.8mb - 79f
1:20pm  -   -   -  2 mph 1017mb - 79f
1:10pm 0.3ft  -  2 2 mph 1017.3mb - 79f
1:00pm 0.3ft  -   -  2 mph 1017.2mb 79f 79f
12:50pm 0.3ft  -  2 4 mph 1017.2mb - 79f
12:40pm  -   -  2 4 mph 1017.3mb - 79f
12:30pm  -   -  4 4 mph 1017.4mb - 79f
12:20pm  -   -  4 7 mph 1017.5mb - 79f
12:10pm 0.3ft  -  2 4 mph 1017.6mb - 79f
12:00pm 0.3ft  -  2 4 mph 1017.7mb 78f 79f
11:50am 0.3ft  -  4 4 mph 1017.5mb - 79f
11:40am  -   -  4 7 mph 1017.4mb - 78f
11:30am  -   -  4 7 mph 1017.4mb - 78f
11:20am  -   -  4 7 mph 1017.4mb - 78f
11:10am 0.7ft  -  4 4 mph 1017.5mb - 78f
11:00am 0.7ft  -  4 7 mph 1017.5mb 78f 78f
10:50am 0.7ft  -  4 7 mph 1017.4mb - 78f
10:40am  -   -  4 7 mph 1017.6mb - 78f
10:30am  -   -  4 7 mph 1017.4mb - 78f
10:10am 0.7ft  -  4 7 mph 1017.4mb - 78f
10:00am 0.7ft  -  7 9 mph 1017mb 78f 77f
9:50am 0.7ft  -  7 9 mph 1016.9mb - 77f
9:40am  -   -  7 9 mph 1017mb - 77f
9:30am  -   -  7 7 mph 1017.2mb - 77f
9:20am  -   -  7 9 mph 1017.3mb - 77f
9:10am 0.7ft  -  7 9 mph 1017.4mb - 77f
9:00am 0.7ft  -  7 7 mph 1017.5mb 78f 76f
8:50am 0.7ft  -  7 9 mph 1017.6mb - 76f
8:40am  -   -  7 9 mph 1017.8mb - 76f
8:30am  -   -  7 9 mph 1017.8mb - 76f
8:20am  -   -  9 11 mph 1017.6mb - 76f
8:10am 0.7ft  -  9 11 mph 1017.6mb - 76f
8:00am 0.7ft  -  9 11 mph 1017.7mb 78f 76f
7:50am 0.7ft  -  9 11 mph 1017.6mb - 76f
7:40am  -   -  9 11 mph 1017.7mb - 76f
7:30am  -   -  11 11 mph 1017.7mb - 76f
7:20am  -   -  9 11 mph 1017.6mb - 76f
7:10am  -   -  9 11 mph 1017.5mb - 76f
7:00am  -   -  9 11 mph 1017.3mb 78f 76f
6:50am  -   -  9 11 mph 1017.2mb - 76f
6:40am  -   -  9 11 mph 1017.2mb - 76f
6:30am  -   -  9 9 mph 1017.2mb - 76f
6:20am  -   -  7 9 mph 1017.1mb - 76f
6:10am 0.7ft  -  7 9 mph 1017.1mb - 76f
6:00am 0.7ft  -  9 9 mph 1017mb 78f 76f
5:50am 0.7ft  -  9 9 mph 1016.8mb - 76f
5:40am  -   -  9 9 mph 1016.7mb - 76f
5:30am  -   -  9 9 mph 1016.6mb - 76f
5:20am  -   -  9 9 mph 1016.6mb - 76f
5:10am  -   -  9 11 mph 1016.6mb - 76f
5:00am  -   -  9 9 mph 1016.7mb 78f 76f
4:50am  -   -  9 9 mph 1016.7mb - 76f
4:40am  -   -  9 9 mph 1016.7mb - 76f
4:30am  -   -  9 11 mph 1016.7mb - 76f
4:20am  -   -  9 11 mph 1016.7mb - 76f
4:10am 0.7ft  -  9 11 mph 1016.8mb - 76f
4:00am 0.7ft  -  9 11 mph 1016.9mb 78f 76f
3:50am  -   -  9 11 mph 1016.9mb - 76f
3:40am  -   -  9 11 mph 1017mb - 76f
3:30am  -   -  9 11 mph 1017mb - 76f
3:20am  -   -  9 11 mph 1016.9mb - 77f
3:10am  -   -  9 9 mph 1016.9mb - 77f
3:00am 0.3ft  -  9 9 mph 1017mb 78f 76f
2:50am 0.3ft  -  7 9 mph 1017mb - 77f
2:40am  -   -  7 9 mph 1017.1mb - 76f
2:30am  -   -  9 9 mph 1017.2mb - 76f
2:20am  -   -  7 9 mph 1017.4mb - 76f
2:10am 0.3ft  -  7 9 mph 1017.3mb - 77f
2:00am 0.3ft  -  9 9 mph 1017.3mb 78f 77f
1:50am 0.3ft  -  7 9 mph 1017.3mb - 77f
1:40am  -   -  7 9 mph 1017.3mb - 77f
1:30am  -   -  7 9 mph 1017.4mb - 77f
1:20am  -   -  4 7 mph 1017.4mb - 77f
1:10am  -   -  7 7 mph 1017.3mb - 77f
1:00am  -   -  7 7 mph 1017.5mb 79f 78f
12:50am  -   -  7 7 mph 1017.6mb - 78f
12:40am  -   -  7 9 mph 1017.5mb - 78f
12:30am  -   -  7 9 mph 1017.6mb - 78f
12:20am  -   -  7 7 mph 1017.7mb - 78f
12:10am  -   -  7 7 mph 1017.7mb - 78f
12:00am  -   -  7 7 mph 1017.7mb 79f 78f
Sun 08/13 11:50pm  -   -  4 7 mph 1017.7mb - 79f
11:40pm  -   -  7 9 mph 1017.6mb - 79f
11:30pm  -   -  7 7 mph 1017.5mb - 79f
11:20pm  -   -  7 7 mph 1017.6mb - 79f
11:10pm 0.7ft  -  7 7 mph 1017.5mb - 79f
11:00pm 0.7ft  -  7 9 mph 1017.4mb 79f 79f
10:50pm 0.7ft  -  7 9 mph 1017.3mb - 79f
10:40pm  -   -  7 7 mph 1017.3mb - 80f
10:30pm  -   -  7 7 mph 1017.3mb - 80f
10:20pm  -   -  4 7 mph 1017.3mb - 80f
10:10pm 0.3ft  -  4 7 mph 1017.3mb - 80f
10:00pm 0.3ft  -  4 7 mph 1017.3mb 79f 80f
9:50pm 0.3ft  -  4 4 mph 1017.3mb - 80f
9:40pm  -   -  4 4 mph 1017.2mb - 80f
9:30pm  -   -  2 4 mph 1017.1mb - 80f
9:20pm  -   -  2 4 mph 1017mb - 80f
9:10pm 0.3ft  -  4 4 mph 1016.9mb - 80f
9:00pm 0.3ft  -  2 4 mph 1016.8mb 80f 80f
8:50pm 0.3ft  -  2 4 mph 1016.8mb - 80f
8:40pm  -   -  4 4 mph 1017mb - 80f
8:30pm  -   -  2 4 mph 1016.8mb - 80f
8:20pm  -   -  2 4 mph 1016.7mb - 80f
8:10pm 0.3ft  -  2 4 mph 1016.7mb - 80f
8:00pm 0.3ft  -  4 4 mph 1016.7mb 79f 80f
7:50pm 0.3ft  -  4 4 mph 1016.7mb - 80f
7:40pm  -   -  4 7 mph 1016.7mb - 80f
7:30pm  -   -  4 7 mph 1016.7mb - 81f
7:20pm  -   -  4 7 mph 1016.7mb - 81f
7:10pm 0.3ft  -  4 7 mph 1016.7mb - 81f
7:00pm 0.7ft  -  4 7 mph 1016.7mb 80f 81f
6:50pm 0.3ft  -  4 4 mph 1016.6mb - 81f
6:40pm  -   -  4 4 mph 1016.4mb - 81f
6:30pm  -   -  4 7 mph 1016.3mb - 81f
6:20pm  -   -  4 4 mph 1016.3mb - 81f
6:10pm 0.3ft  -  4 4 mph 1016.3mb - 81f
6:00pm 0.3ft  -  4 4 mph 1016.3mb 80f 81f
5:50pm 0.3ft  -  4 4 mph 1016.4mb - 81f
5:40pm  -   -  4 4 mph 1016.4mb - 81f
5:30pm  -   -  2 4 mph 1016.5mb - 81f
5:20pm  -   -  4 7 mph 1016.5mb - 81f
5:10pm 0.3ft  -  4 7 mph 1016.5mb - 80f
5:00pm 0.3ft  -  4 7 mph 1016.5mb 80f 80f
4:50pm 0.3ft  -  7 9 mph 1016.5mb - 80f
4:40pm  -   -  7 9 mph 1016.5mb - 80f
4:30pm  -   -  7 9 mph 1016.5mb - 80f
4:20pm  -   -  7 9 mph 1016.5mb - 80f
4:10pm 0.7ft  -  7 9 mph 1016.5mb - 79f
4:00pm 0.7ft  -  7 9 mph 1016.6mb 80f 79f
3:50pm 0.7ft  -  7 7 mph 1016.6mb - 79f
3:40pm  -   -  4 7 mph 1016.7mb - 79f
3:30pm  -   -  4 7 mph 1016.7mb - 79f
3:20pm  -   -  4 7 mph 1016.6mb - 78f
3:10pm 0.7ft  -  7 7 mph 1016.7mb - 78f
3:00pm 0.7ft  -  7 9 mph 1016.7mb 80f 78f
2:50pm 0.7ft  -  4 7 mph 1016.7mb - 78f
2:40pm  -   -  4 7 mph 1016.6mb - 78f
2:30pm  -   -  4 7 mph 1016.6mb - 77f
2:20pm  -   -  4 7 mph 1016.6mb - 77f
2:10pm 1ft  -  4 7 mph 1016.6mb - 77f
2:00pm 1ft 2s 4 7 mph 1016.6mb 79f 77f
1:50pm 1ft  -  4 7 mph 1016.6mb - 77f
1:40pm  -   -  7 7 mph 1016.7mb - 77f
1:30pm  -   -  7 7 mph 1016.6mb - 77f
1:20pm  -   -  4 7 mph 1016.7mb - 76f
1:10pm 1ft  -  7 7 mph 1016.7mb - 76f
1:00pm 1ft 2s 7 9 mph 1016.6mb 79f 76f
12:50pm 1ft  -  7 9 mph 1016.4mb - 76f
12:40pm  -   -  9 9 mph 1016.5mb - 76f
12:30pm  -   -  9 11 mph 1016.5mb - 76f
12:20pm  -   -  11 13 mph 1016.5mb - 76f
12:10pm 1.3ft  -  9 13 mph 1016.4mb - 75f
12:00pm 1.3ft 2s 11 13 mph 1016.5mb 78f 75f
11:50am 1.3ft  -  11 13 mph 1016.5mb - 75f
11:40am  -   -  11 13 mph 1016.4mb - 75f
11:30am  -   -  11 13 mph 1016.5mb - 75f
11:20am  -   -  13 16 mph 1016.4mb - 75f
11:10am 1.3ft  -  16 18 mph 1016.4mb - 75f
11:00am 1.3ft 2s 13 18 mph 1016.5mb 78f 75f
10:50am 1.3ft  -  13 18 mph 1016.4mb - 74f
10:40am  -   -  13 18 mph 1016.4mb - 74f
10:30am  -   -  13 18 mph 1016.3mb - 74f
10:20am  -   -  13 16 mph 1016.3mb - 74f
10:10am 1.6ft  -  13 16 mph 1016.3mb - 74f
10:00am 1.6ft 3s 13 18 mph 1016.2mb 78f 74f